createdAt,value
2023-11-17T00:00:32.060Z,17.50
2023-11-17T00:03:25.845Z,21.30
2023-11-17T00:05:57.995Z,20.30
2023-11-17T00:08:29.669Z,19.20
2023-11-17T00:11:01.675Z,19.40
2023-11-17T00:13:33.275Z,20.00
2023-11-17T00:18:39.241Z,17.30
2023-11-17T00:21:11.501Z,19.30
2023-11-17T00:23:43.220Z,20.00
2023-11-17T00:28:45.666Z,17.70
2023-11-17T00:31:17.459Z,19.60
2023-11-17T00:36:20.327Z,19.40
2023-11-17T00:38:52.177Z,17.50
2023-11-17T00:44:03.109Z,16.70
2023-11-17T00:46:35.256Z,16.50
2023-11-17T00:49:07.306Z,16.70
2023-11-17T00:51:40.899Z,18.40
2023-11-17T00:54:15.319Z,15.90
2023-11-17T00:56:46.987Z,16.50
2023-11-17T00:59:18.903Z,17.10
2023-11-17T01:01:51.976Z,17.00
2023-11-17T01:04:24.575Z,17.20
2023-11-17T01:06:56.832Z,17.20
2023-11-17T01:09:29.306Z,16.80
2023-11-17T01:12:01.540Z,16.00
2023-11-17T01:14:33.357Z,16.30
2023-11-17T01:17:05.736Z,16.80
2023-11-17T01:19:40.397Z,15.30
2023-11-17T01:22:12.958Z,16.10
2023-11-17T01:24:44.967Z,15.80
2023-11-17T01:27:18.272Z,15.40
2023-11-17T01:29:49.842Z,14.80
2023-11-17T01:32:23.302Z,14.80
2023-11-17T01:34:57.008Z,15.70
2023-11-17T01:37:28.776Z,16.50
2023-11-17T01:40:00.430Z,15.60
2023-11-17T01:45:09.435Z,13.90
2023-11-17T01:47:43.807Z,14.80
2023-11-17T01:50:17.777Z,14.30
2023-11-17T01:52:49.635Z,14.80
2023-11-17T01:57:53.308Z,13.50
2023-11-17T02:00:25.279Z,14.00
2023-11-17T02:03:00.969Z,13.80
2023-11-17T02:05:35.118Z,13.80
2023-11-17T02:08:37.502Z,14.10
2023-11-17T02:11:24.741Z,13.30
2023-11-17T02:14:09.171Z,13.10
2023-11-17T02:16:43.228Z,13.10
2023-11-17T02:19:35.401Z,14.10
2023-11-17T02:22:16.701Z,12.90
2023-11-17T02:25:11.360Z,14.10
2023-11-17T02:28:01.381Z,12.50
2023-11-17T02:30:34.876Z,13.40
2023-11-17T02:33:09.158Z,12.80
2023-11-17T02:35:44.167Z,14.20
2023-11-17T02:38:16.234Z,13.20
2023-11-17T02:40:48.121Z,12.40
2023-11-17T02:43:23.588Z,12.20
2023-11-17T02:45:56.805Z,13.50
2023-11-17T02:51:18.604Z,10.90
2023-11-17T02:53:52.364Z,11.60
2023-11-17T02:56:24.435Z,11.80
2023-11-17T02:58:57.252Z,10.90
2023-11-17T03:01:29.069Z,10.50
2023-11-17T03:06:32.569Z,9.20
2023-11-17T03:09:05.817Z,10.10
2023-11-17T03:11:38.117Z,11.00
2023-11-17T03:14:10.003Z,11.40
2023-11-17T03:16:42.110Z,10.40
2023-11-17T03:19:13.972Z,10.10
2023-11-17T03:24:23.764Z,9.10
2023-11-17T03:26:57.797Z,9.90
2023-11-17T03:29:32.389Z,10.10
2023-11-17T03:32:07.816Z,9.90
2023-11-17T03:34:41.434Z,9.90
2023-11-17T03:37:13.797Z,9.70
2023-11-17T03:39:45.483Z,10.50
2023-11-17T03:44:52.585Z,8.40
2023-11-17T03:47:24.334Z,9.40
2023-11-17T03:49:56.313Z,9.30
2023-11-17T03:52:28.481Z,9.40
2023-11-17T03:55:01.082Z,9.70
2023-11-17T03:57:37.444Z,9.50
2023-11-17T04:00:13.534Z,9.40
2023-11-17T04:02:45.165Z,9.30
2023-11-17T04:05:17.124Z,9.30
2023-11-17T04:07:49.738Z,9.50
2023-11-17T04:12:53.894Z,7.90
2023-11-17T04:15:25.455Z,8.70
2023-11-17T04:17:58.212Z,9.10
2023-11-17T04:20:29.991Z,8.50
2023-11-17T04:23:01.610Z,8.70
2023-11-17T04:25:33.776Z,9.50
2023-11-17T04:28:05.863Z,9.10
2023-11-17T04:30:37.496Z,9.30
2023-11-17T04:33:10.000Z,8.70
2023-11-17T04:35:41.710Z,8.70
2023-11-17T04:38:13.813Z,8.40
2023-11-17T04:40:46.127Z,7.90
2023-11-17T04:43:17.933Z,8.60
2023-11-17T04:48:21.940Z,7.80
2023-11-17T04:53:25.432Z,7.80
2023-11-17T04:55:57.067Z,7.90
2023-11-17T04:58:28.753Z,8.20
2023-11-17T05:03:31.462Z,8.20
2023-11-17T05:06:06.476Z,8.30
2023-11-17T05:08:40.420Z,8.70
2023-11-17T05:11:12.816Z,8.60
2023-11-17T05:13:44.546Z,7.90
2023-11-17T05:18:48.644Z,8.60
2023-11-17T05:21:20.919Z,9.40
2023-11-17T05:23:55.052Z,9.30
2023-11-17T05:26:27.005Z,9.20
2023-11-17T05:28:58.637Z,47.00
2023-11-17T05:34:02.604Z,11.70
2023-11-17T05:36:39.981Z,9.40
2023-11-17T05:39:13.872Z,9.00
2023-11-17T05:41:47.772Z,10.10
2023-11-17T05:44:19.880Z,9.00
2023-11-17T05:49:22.297Z,8.80
2023-11-17T05:54:26.676Z,7.90
2023-11-17T05:56:59.575Z,8.20
2023-11-17T05:59:31.785Z,8.20
2023-11-17T06:02:04.500Z,8.90
2023-11-17T06:04:36.919Z,8.60
2023-11-17T06:07:09.511Z,8.70
2023-11-17T06:09:43.483Z,8.90
2023-11-17T06:12:16.282Z,9.10
2023-11-17T06:14:48.974Z,8.80
2023-11-17T06:17:20.630Z,8.70
2023-11-17T06:22:23.203Z,7.50
2023-11-17T06:24:55.058Z,8.50
2023-11-17T06:32:29.469Z,6.60
2023-11-17T06:35:01.527Z,7.50
2023-11-17T06:37:33.831Z,8.50
2023-11-17T06:40:10.783Z,8.70
2023-11-17T06:42:42.699Z,7.50
2023-11-17T06:47:46.012Z,7.80
2023-11-17T06:50:18.161Z,7.70
2023-11-17T06:52:50.316Z,8.20
2023-11-17T06:55:22.222Z,8.20
2023-11-17T06:57:54.664Z,8.40
2023-11-17T07:00:26.515Z,8.70
2023-11-17T07:05:31.333Z,7.00
2023-11-17T07:08:02.976Z,7.90
2023-11-17T07:13:05.710Z,7.30
2023-11-17T07:15:40.647Z,8.60
2023-11-17T07:18:12.660Z,8.30
2023-11-17T07:20:44.340Z,8.90
2023-11-17T07:23:15.999Z,8.80
2023-11-17T07:28:18.549Z,8.20
2023-11-17T07:30:50.424Z,8.30
2023-11-17T07:35:53.309Z,7.90
2023-11-17T07:38:24.895Z,8.20
2023-11-17T07:40:56.460Z,8.30
2023-11-17T07:45:59.232Z,8.30
2023-11-17T07:48:32.306Z,9.30
2023-11-17T07:51:07.831Z,8.90
2023-11-17T07:53:39.592Z,9.50
2023-11-17T07:58:44.029Z,9.00
2023-11-17T08:03:49.017Z,8.60
2023-11-17T08:06:20.730Z,9.80
2023-11-17T08:11:25.856Z,8.80
2023-11-17T08:13:58.519Z,9.70
2023-11-17T08:16:30.238Z,9.40
2023-11-17T08:19:24.520Z,9.70
2023-11-17T08:22:05.626Z,9.80
2023-11-17T08:24:37.199Z,8.40
2023-11-17T08:27:09.022Z,8.20
2023-11-17T08:32:12.227Z,6.80
2023-11-17T08:34:47.180Z,7.10
2023-11-17T08:37:19.098Z,7.10
2023-11-17T08:39:51.100Z,7.30
2023-11-17T08:42:23.219Z,6.60
2023-11-17T08:44:55.039Z,6.90
2023-11-17T08:50:01.569Z,5.80
2023-11-17T08:52:36.067Z,6.80
2023-11-17T08:55:13.822Z,6.00
2023-11-17T08:57:47.047Z,4.80
2023-11-17T09:00:25.645Z,5.60
2023-11-17T09:02:57.255Z,4.90
2023-11-17T09:07:59.907Z,4.60
2023-11-17T09:10:31.840Z,4.40
2023-11-17T09:13:05.463Z,4.00
2023-11-17T09:15:39.305Z,4.20
2023-11-17T09:18:14.166Z,3.70
2023-11-17T09:20:46.306Z,3.50
2023-11-17T09:23:18.414Z,3.50
2023-11-17T09:25:50.041Z,3.10
2023-11-17T09:28:21.901Z,2.90
2023-11-17T09:33:26.331Z,2.20
2023-11-17T09:36:03.410Z,2.10
2023-11-17T09:38:37.499Z,2.20
2023-11-17T09:41:09.946Z,2.50
2023-11-17T09:43:47.781Z,2.60
2023-11-17T09:46:28.565Z,2.70
2023-11-17T09:49:04.729Z,3.10
2023-11-17T09:51:38.423Z,3.30
2023-11-17T09:54:14.392Z,3.40
2023-11-17T09:56:50.404Z,3.20
2023-11-17T09:59:23.289Z,3.50
2023-11-17T10:02:00.113Z,4.10
2023-11-17T10:04:33.077Z,3.60
2023-11-17T10:07:07.129Z,3.80
2023-11-17T10:09:40.904Z,4.10
2023-11-17T10:12:15.741Z,3.90
2023-11-17T10:14:49.279Z,3.80
2023-11-17T10:17:22.221Z,4.10
2023-11-17T10:19:56.177Z,3.30
2023-11-17T10:22:29.638Z,3.60
2023-11-17T10:25:01.875Z,3.20
2023-11-17T10:27:33.640Z,3.50
2023-11-17T10:32:53.762Z,3.60
2023-11-17T10:35:35.481Z,3.60
2023-11-17T10:38:14.245Z,4.20
2023-11-17T10:40:46.060Z,4.20
2023-11-17T10:43:17.890Z,4.50
2023-11-17T10:48:20.617Z,4.00
2023-11-17T10:51:07.604Z,4.10
2023-11-17T10:53:39.221Z,3.60
2023-11-17T10:56:24.972Z,3.90
2023-11-17T10:58:59.202Z,3.70
2023-11-17T11:01:32.315Z,4.20
2023-11-17T11:04:09.982Z,3.70
2023-11-17T11:06:43.274Z,3.80
2023-11-17T11:09:17.901Z,4.20
2023-11-17T11:11:51.034Z,3.50
2023-11-17T11:14:24.498Z,3.30
2023-11-17T11:16:57.388Z,3.30
2023-11-17T11:19:39.069Z,3.60
2023-11-17T11:22:18.197Z,3.60
2023-11-17T11:24:50.217Z,3.80
2023-11-17T11:27:24.213Z,3.70
2023-11-17T11:29:57.173Z,3.70
2023-11-17T11:32:29.147Z,3.80
2023-11-17T11:35:00.661Z,3.90
2023-11-17T11:37:34.546Z,3.60
2023-11-17T11:40:13.019Z,3.60
2023-11-17T11:42:47.073Z,3.40
2023-11-17T11:45:20.850Z,3.10
2023-11-17T11:47:58.089Z,3.20
2023-11-17T11:50:38.616Z,2.80
2023-11-17T11:53:36.629Z,3.00
2023-11-17T11:56:15.416Z,2.90
2023-11-17T11:58:49.705Z,2.90
2023-11-17T12:01:24.053Z,3.30
2023-11-17T12:04:02.276Z,3.60
2023-11-17T12:06:39.253Z,3.30
2023-11-17T12:09:17.019Z,3.20
2023-11-17T12:11:51.890Z,3.20
2023-11-17T12:14:31.326Z,3.50
2023-11-17T12:17:04.937Z,3.60
2023-11-17T12:19:38.371Z,3.90
2023-11-17T12:22:11.545Z,3.90
2023-11-17T12:24:44.106Z,4.10
2023-11-17T12:27:17.715Z,4.20
2023-11-17T12:29:50.461Z,4.30
2023-11-17T12:32:24.471Z,4.60
2023-11-17T12:34:57.407Z,4.70
2023-11-17T12:37:34.955Z,5.20
2023-11-17T12:40:20.088Z,5.30
2023-11-17T12:42:53.133Z,5.70
2023-11-17T12:45:28.754Z,5.20
2023-11-17T12:48:01.725Z,4.90
2023-11-17T12:50:45.699Z,5.30
2023-11-17T12:53:17.632Z,5.10
2023-11-17T12:55:51.140Z,5.10
2023-11-17T12:58:23.918Z,5.30
2023-11-17T13:01:11.553Z,5.40
2023-11-17T13:03:44.995Z,5.10
2023-11-17T13:06:19.106Z,5.50
2023-11-17T13:08:51.332Z,5.70
2023-11-17T13:11:27.143Z,5.20
2023-11-17T13:14:01.064Z,5.60
2023-11-17T13:16:33.442Z,6.90
2023-11-17T13:19:07.574Z,6.80
2023-11-17T13:21:39.931Z,8.00
2023-11-17T13:24:13.192Z,7.80
2023-11-17T13:26:45.076Z,8.20
2023-11-17T13:29:19.767Z,7.90
2023-11-17T13:32:02.487Z,8.70
2023-11-17T13:34:36.589Z,8.30
2023-11-17T13:37:12.163Z,6.40
2023-11-17T13:39:43.895Z,7.50
2023-11-17T13:42:17.514Z,6.80
2023-11-17T13:44:49.194Z,6.30
2023-11-17T13:49:52.856Z,7.20
2023-11-17T13:52:24.475Z,6.00
2023-11-17T13:57:28.675Z,5.70
2023-11-17T14:02:31.518Z,5.90
2023-11-17T14:05:07.394Z,5.00
2023-11-17T14:07:39.484Z,5.70
2023-11-17T14:10:14.335Z,5.20
2023-11-17T14:12:47.458Z,4.90
2023-11-17T14:15:20.102Z,4.70
2023-11-17T14:17:53.039Z,5.60
2023-11-17T14:20:25.471Z,5.50
2023-11-17T14:22:57.632Z,5.30
2023-11-17T14:25:29.344Z,6.20
2023-11-17T14:30:32.337Z,6.20
2023-11-17T14:33:05.688Z,6.10
2023-11-17T14:35:37.390Z,7.20
2023-11-17T14:38:09.290Z,6.90
2023-11-17T14:40:41.142Z,7.60
2023-11-17T14:43:13.270Z,7.40
2023-11-17T14:45:45.063Z,7.40
2023-11-17T14:48:16.892Z,6.80
2023-11-17T14:50:49.228Z,5.90
2023-11-17T14:53:20.951Z,6.50
2023-11-17T14:55:52.709Z,6.50
2023-11-17T14:58:24.769Z,6.30
2023-11-17T15:00:56.912Z,7.10
2023-11-17T15:03:29.479Z,8.00
2023-11-17T15:06:06.267Z,8.90
2023-11-17T15:08:40.431Z,9.30
2023-11-17T15:11:14.383Z,9.50
2023-11-17T15:13:46.999Z,10.00
2023-11-17T15:16:24.126Z,9.40
2023-11-17T15:18:59.234Z,10.50
2023-11-17T15:21:35.480Z,10.30
2023-11-17T15:24:09.770Z,9.70
2023-11-17T15:26:42.751Z,10.00
2023-11-17T15:29:15.377Z,10.30
2023-11-17T15:31:50.752Z,10.40
2023-11-17T15:34:29.457Z,11.20
2023-11-17T15:37:03.499Z,10.30
2023-11-17T15:39:35.210Z,11.00
2023-11-17T15:44:43.002Z,10.20
2023-11-17T15:47:15.294Z,10.70
2023-11-17T15:49:47.018Z,12.00
2023-11-17T15:52:19.534Z,12.10
2023-11-17T15:54:51.232Z,12.40
2023-11-17T15:59:56.131Z,9.30
2023-11-17T16:02:27.733Z,11.00
2023-11-17T16:07:30.087Z,11.00
2023-11-17T16:10:07.576Z,11.00
2023-11-17T16:12:40.465Z,10.30
2023-11-17T16:15:14.464Z,11.70
2023-11-17T16:17:48.356Z,24.50
2023-11-17T16:20:21.702Z,13.60
2023-11-17T16:22:54.632Z,12.50
2023-11-17T16:25:27.184Z,12.20
2023-11-17T16:27:59.628Z,11.00
2023-11-17T16:30:32.319Z,11.70
2023-11-17T16:33:07.215Z,11.40
2023-11-17T16:35:39.737Z,10.80
2023-11-17T16:38:11.619Z,13.60
2023-11-17T16:40:44.156Z,12.80
2023-11-17T16:43:16.613Z,12.20
2023-11-17T16:45:51.933Z,15.30
2023-11-17T16:48:23.617Z,16.80
2023-11-17T16:50:55.370Z,11.40
2023-11-17T16:53:29.363Z,11.60
2023-11-17T16:56:01.501Z,9.30
2023-11-17T16:58:33.214Z,10.60
2023-11-17T17:06:31.757Z,11.90
2023-11-17T17:09:16.313Z,10.50
2023-11-17T17:11:49.477Z,8.80
2023-11-17T17:16:54.940Z,7.80
2023-11-17T17:19:30.094Z,8.70
2023-11-17T17:22:03.519Z,9.30
2023-11-17T17:24:37.178Z,8.20
2023-11-17T17:27:10.326Z,10.00
2023-11-17T17:29:42.978Z,8.90
2023-11-17T17:32:14.862Z,10.00
2023-11-17T17:34:47.968Z,9.70
2023-11-17T17:37:20.054Z,9.90
2023-11-17T17:39:53.160Z,9.50
2023-11-17T17:42:25.160Z,9.10
2023-11-17T17:44:56.823Z,9.10
2023-11-17T17:50:00.029Z,9.60
2023-11-17T17:52:32.361Z,8.90
2023-11-17T17:55:06.238Z,8.30
2023-11-17T17:57:38.428Z,8.60
2023-11-17T18:00:16.800Z,8.00
2023-11-17T18:02:52.617Z,8.50
2023-11-17T18:05:24.572Z,8.80
2023-11-17T18:07:56.576Z,8.30
2023-11-17T18:10:28.763Z,8.30
2023-11-17T18:13:01.252Z,7.70
2023-11-17T18:15:34.640Z,7.80
2023-11-17T18:18:07.128Z,8.20
2023-11-17T18:20:39.016Z,8.30
2023-11-17T18:23:11.188Z,8.30
2023-11-17T18:25:42.874Z,9.50
2023-11-17T18:30:46.782Z,7.70
2023-11-17T18:33:19.022Z,8.20
2023-11-17T18:35:54.776Z,6.80
2023-11-17T18:38:26.851Z,8.20
2023-11-17T18:40:58.681Z,7.60
2023-11-17T18:43:31.349Z,6.70
2023-11-17T18:46:05.914Z,8.30
2023-11-17T18:48:40.032Z,10.30
2023-11-17T18:51:15.195Z,7.40
2023-11-17T18:53:47.305Z,6.80
2023-11-17T18:56:19.265Z,6.40
2023-11-17T19:01:23.158Z,6.90
2023-11-17T19:03:55.041Z,6.70
2023-11-17T19:06:26.721Z,6.30
2023-11-17T19:08:59.705Z,13.10
2023-11-17T19:11:31.910Z,8.60
2023-11-17T19:14:03.956Z,8.20
2023-11-17T19:16:36.869Z,8.00
2023-11-17T19:19:09.596Z,8.10
2023-11-17T19:21:44.746Z,7.50
2023-11-17T19:24:21.652Z,7.20
2023-11-17T19:27:10.199Z,6.70
2023-11-17T19:29:45.242Z,6.80
2023-11-17T19:32:17.538Z,7.20
2023-11-17T19:34:51.740Z,7.00
2023-11-17T19:37:25.923Z,7.40
2023-11-17T19:39:58.392Z,8.30
2023-11-17T19:42:31.047Z,8.00
2023-11-17T19:45:07.893Z,7.90
2023-11-17T19:47:40.482Z,6.40
2023-11-17T19:50:15.926Z,7.00
2023-11-17T19:52:50.281Z,7.00
2023-11-17T19:55:24.228Z,7.50
2023-11-17T19:57:57.562Z,7.40
2023-11-17T20:00:30.178Z,7.40
2023-11-17T20:03:02.764Z,6.40
2023-11-17T20:05:35.814Z,6.20
2023-11-17T20:08:12.531Z,7.60
2023-11-17T20:10:46.048Z,7.60
2023-11-17T20:13:21.701Z,6.40
2023-11-17T20:15:53.709Z,6.70
2023-11-17T20:18:27.195Z,7.30
2023-11-17T20:21:00.049Z,5.90
2023-11-17T20:23:32.588Z,6.70
2023-11-17T20:26:07.366Z,6.40
2023-11-17T20:28:40.360Z,6.60
2023-11-17T20:31:16.438Z,6.30
2023-11-17T20:33:49.337Z,6.00
2023-11-17T20:36:25.623Z,9.00
2023-11-17T20:38:58.399Z,6.30
2023-11-17T20:41:33.462Z,6.90
2023-11-17T20:44:07.368Z,7.10
2023-11-17T20:46:40.805Z,6.50
2023-11-17T20:49:13.863Z,6.50
2023-11-17T20:51:46.799Z,7.00
2023-11-17T20:54:19.488Z,7.10
2023-11-17T20:56:51.568Z,6.90
2023-11-17T20:59:26.872Z,7.40
2023-11-17T21:02:00.729Z,6.70
2023-11-17T21:04:36.741Z,6.40
2023-11-17T21:07:10.998Z,6.60
2023-11-17T21:09:43.385Z,6.20
2023-11-17T21:12:15.734Z,6.00
2023-11-17T21:14:47.673Z,5.90
2023-11-17T21:19:54.048Z,6.00
2023-11-17T21:22:26.685Z,5.60
2023-11-17T21:24:58.371Z,5.30
2023-11-17T21:27:30.229Z,6.40
2023-11-17T21:32:33.105Z,4.40
2023-11-17T21:35:12.782Z,5.30
2023-11-17T21:37:46.396Z,5.40
2023-11-17T21:40:20.468Z,4.80
2023-11-17T21:42:52.930Z,4.60
2023-11-17T21:45:26.690Z,5.30
2023-11-17T21:47:59.309Z,4.80
2023-11-17T21:50:33.248Z,5.30
2023-11-17T21:53:05.468Z,4.70
2023-11-17T21:55:37.280Z,4.50
2023-11-17T21:58:09.333Z,4.60
2023-11-17T22:00:41.553Z,4.70
2023-11-17T22:03:13.802Z,4.90
2023-11-17T22:05:45.937Z,5.00
2023-11-17T22:08:17.674Z,4.70
2023-11-17T22:15:53.736Z,4.20
2023-11-17T22:20:57.482Z,4.40
2023-11-17T22:23:29.049Z,4.00
2023-11-17T22:26:00.848Z,4.30
2023-11-17T22:28:32.574Z,4.50
2023-11-17T22:31:05.553Z,4.40
2023-11-17T22:33:43.020Z,4.10
2023-11-17T22:36:16.778Z,4.30
2023-11-17T22:38:48.527Z,8.10
2023-11-17T22:41:21.036Z,5.60
2023-11-17T22:43:52.636Z,4.30
2023-11-17T22:46:24.352Z,5.00
2023-11-17T22:48:56.333Z,4.30
2023-11-17T22:51:28.351Z,4.10
2023-11-17T22:54:02.017Z,4.40
2023-11-17T22:56:35.144Z,4.70
2023-11-17T23:01:37.854Z,4.10
2023-11-17T23:04:10.501Z,4.90
2023-11-17T23:06:42.678Z,4.80
2023-11-17T23:09:15.591Z,4.50
2023-11-17T23:11:47.079Z,4.20
2023-11-17T23:14:18.755Z,4.50
2023-11-17T23:16:50.351Z,4.80
2023-11-17T23:19:22.098Z,4.90
2023-11-17T23:21:53.603Z,4.60
2023-11-17T23:24:26.273Z,13.80
2023-11-17T23:26:57.948Z,7.40
2023-11-17T23:29:29.828Z,4.30
2023-11-17T23:32:01.630Z,4.30
2023-11-17T23:34:33.742Z,3.90
2023-11-17T23:37:06.007Z,4.10
2023-11-17T23:39:37.730Z,3.50
2023-11-17T23:42:09.801Z,3.50
2023-11-17T23:44:45.028Z,3.50
2023-11-17T23:47:17.051Z,4.10
2023-11-17T23:49:51.189Z,3.70
2023-11-17T23:52:23.099Z,3.80
2023-11-17T23:54:55.479Z,4.10
2023-11-17T23:57:27.394Z,4.00
